Time;durP1;ratioP1;P1;durP2;ratioP2;P2;SDS_P1;SDS_P2;PMS_P1;PMS_P2;Temp;Humidity;BMP_temperature;BMP_pressure;BME280_temperature;BME280_humidity;BME280_pressure;Samples;Min_cycle;Max_cycle;Signal;HPM_P1;HPM_P2
2023/06/14 00:01:15;;;;;;;;;;;;;;;17.17;31.90;100705.38;4962236;27;98416;-72
2023/06/14 00:03:42;;;;;;;;;;;;;;;17.12;31.89;100702.72;4967732;27;97909;-72
2023/06/14 00:06:09;;;;;;;;;;;;;;;17.08;31.92;100709.91;4978303;27;98688;-67
2023/06/14 00:08:35;;;;;;;;;;;;;;;17.05;31.98;100715.16;4963469;27;98028;-73
2023/06/14 00:11:01;;;;;;;;;;;;;;;17.01;31.82;100701.31;4967173;27;97948;-67
2023/06/14 00:13:30;;;;;;;;;;;;;;;16.98;32.06;100704.69;4978544;27;97854;-72
2023/06/14 00:15:57;;;;;;;;;;;;;;;16.94;32.06;100706.41;4981513;27;98061;-72
2023/06/14 00:18:29;;;;;;;;;;;;;;;16.89;32.08;100701.84;4975286;27;97832;-68
2023/06/14 00:20:56;;;;;;;;;;;;;;;16.84;32.20;100691.06;4957585;27;98253;-68
2023/06/14 00:23:23;;;;;;;;;;;;;;;16.82;32.02;100692.47;4956421;27;98227;-72
2023/06/14 00:25:51;;;;;;;;;;;;;;;16.79;31.96;100690.38;4975109;27;98722;-72
2023/06/14 00:28:18;;;;;;;;;;;;;;;16.76;32.05;100696.44;4964504;27;98013;-68
2023/06/14 00:30:46;;;;;;;;;;;;;;;16.73;32.03;100694.25;4960966;27;98103;-72
2023/06/14 00:33:13;;;;;;;;;;;;;;;16.71;32.26;100691.84;4980115;27;97950;-73
2023/06/14 00:35:39;;;;;;;;;;;;;;;16.68;32.15;100692.47;4960990;27;98166;-68
2023/06/14 00:38:07;;;;;;;;;;;;;;;16.66;32.08;100700.09;4960940;27;98069;-73
2023/06/14 00:40:35;;;;;;;;;;;;;;;16.65;32.03;100690.34;4967153;27;101188;-72
2023/06/14 00:43:01;;;;;;;;;;;;;;;16.63;32.10;100695.28;4970556;27;98350;-73
2023/06/14 00:45:27;;;;;;;;;;;;;;;16.60;32.31;100690.44;4968060;27;98151;-72
2023/06/14 00:47:55;;;;;;;;;;;;;;;16.59;32.02;100697.81;4968079;27;98119;-73
2023/06/14 00:50:23;;;;;;;;;;;;;;;16.55;32.26;100687.84;4963304;27;99583;-72
2023/06/14 00:52:50;;;;;;;;;;;;;;;16.53;32.46;100693.56;4962102;27;98889;-67
2023/06/14 00:55:16;;;;;;;;;;;;;;;16.50;32.29;100687.91;4968848;27;98349;-72
2023/06/14 00:57:42;;;;;;;;;;;;;;;16.47;32.25;100696.69;4970326;27;99034;-67
2023/06/14 01:00:09;;;;;;;;;;;;;;;16.42;32.12;100686.69;4976107;27;98134;-72
2023/06/14 01:02:39;;;;;;;;;;;;;;;16.39;32.27;100688.13;4965424;27;98008;-72
2023/06/14 01:05:08;;;;;;;;;;;;;;;16.33;32.24;100683.88;4985646;27;99326;-70
2023/06/14 01:07:53;;;;;;;;;;;;;;;16.29;32.17;100682.84;4969706;27;97972;-72
2023/06/14 01:10:21;;;;;;;;;;;;;;;16.25;32.37;100679.13;4989227;27;98053;-68
2023/06/14 01:12:59;;;;;;;;;;;;;;;16.22;32.46;100685.16;4980652;27;98510;-67
2023/06/14 01:15:25;;;;;;;;;;;;;;;16.19;32.19;100686.59;4983632;27;98860;-72
2023/06/14 01:17:53;;;;;;;;;;;;;;;16.16;32.19;100689.09;4980079;27;98004;-67
2023/06/14 01:20:23;;;;;;;;;;;;;;;16.14;32.45;100697.53;4970363;27;98212;-68
2023/06/14 01:22:53;;;;;;;;;;;;;;;16.11;32.39;100687.28;4962173;27;98932;-73
2023/06/14 01:25:23;;;;;;;;;;;;;;;16.09;32.47;100689.47;4969549;27;98294;-67
2023/06/14 01:27:50;;;;;;;;;;;;;;;16.06;32.42;100695.50;4968231;27;98096;-73
2023/06/14 01:30:17;;;;;;;;;;;;;;;16.04;32.55;100695.00;4969565;27;99047;-73
2023/06/14 01:32:44;;;;;;;;;;;;;;;16.02;32.29;100690.97;4969997;27;100532;-67
2023/06/14 01:35:10;;;;;;;;;;;;;;;16.00;32.22;100698.63;4970249;27;98136;-68
2023/06/14 01:37:37;;;;;;;;;;;;;;;15.97;32.44;100693.78;4972318;27;98104;-68
2023/06/14 01:40:06;;;;;;;;;;;;;;;15.94;32.30;100692.44;4971757;27;98387;-67
2023/06/14 01:42:33;;;;;;;;;;;;;;;15.89;32.45;100696.06;4974125;27;98211;-73
2023/06/14 01:45:00;;;;;;;;;;;;;;;15.88;32.48;100691.72;4964866;27;99831;-67
2023/06/14 01:47:26;;;;;;;;;;;;;;;15.86;32.30;100701.28;4961663;27;98118;-67
2023/06/14 01:49:53;;;;;;;;;;;;;;;15.83;32.53;100694.50;4988260;27;98125;-73
2023/06/14 01:52:22;;;;;;;;;;;;;;;15.81;32.47;100694.03;4971958;27;98359;-68
2023/06/14 01:54:49;;;;;;;;;;;;;;;15.78;32.31;100688.38;4970775;27;99185;-68
2023/06/14 01:57:16;;;;;;;;;;;;;;;15.75;32.24;100686.25;4981198;27;100619;-73
2023/06/14 01:59:42;;;;;;;;;;;;;;;15.71;32.58;100684.09;4964446;27;98196;-68
2023/06/14 02:02:09;;;;;;;;;;;;;;;15.68;32.52;100689.34;4961435;27;98903;-73
2023/06/14 02:04:36;;;;;;;;;;;;;;;15.65;32.81;100693.47;4967264;27;98557;-67
2023/06/14 02:07:04;;;;;;;;;;;;;;;15.61;32.63;100686.16;4962402;27;98752;-72
2023/06/14 02:09:30;;;;;;;;;;;;;;;15.58;32.32;100689.47;4953773;27;99900;-67
2023/06/14 02:11:57;;;;;;;;;;;;;;;15.56;32.78;100688.94;4946914;27;98170;-73
2023/06/14 02:14:23;;;;;;;;;;;;;;;15.54;32.33;100693.88;4947387;27;98133;-67
2023/06/14 02:16:50;;;;;;;;;;;;;;;15.52;32.60;100698.78;4948428;27;98485;-67
2023/06/14 02:19:17;;;;;;;;;;;;;;;15.49;32.42;100702.13;4941548;27;98308;-73
2023/06/14 02:21:43;;;;;;;;;;;;;;;15.46;32.60;100700.78;4950924;27;100162;-67
2023/06/14 02:24:11;;;;;;;;;;;;;;;15.44;32.48;100701.09;4949898;27;98132;-72
2023/06/14 02:26:43;;;;;;;;;;;;;;;15.41;32.48;100706.28;4961480;27;98418;-73
2023/06/14 02:29:12;;;;;;;;;;;;;;;15.37;32.70;100705.28;4967070;27;98723;-68
2023/06/14 02:31:38;;;;;;;;;;;;;;;15.33;32.76;100709.66;4984320;27;98114;-68
2023/06/14 02:34:05;;;;;;;;;;;;;;;15.30;32.61;100704.81;4972039;27;98008;-73
2023/06/14 02:36:32;;;;;;;;;;;;;;;15.27;32.89;100706.19;4966589;27;98146;-73
2023/06/14 02:38:58;;;;;;;;;;;;;;;15.26;32.70;100714.66;4964158;27;98501;-72
2023/06/14 02:41:25;;;;;;;;;;;;;;;15.24;32.70;100709.50;4966454;27;98176;-67
2023/06/14 02:43:52;;;;;;;;;;;;;;;15.21;32.75;100710.91;4977500;27;97924;-67
2023/06/14 02:46:18;;;;;;;;;;;;;;;15.19;32.49;100717.72;4965295;27;98115;-67
2023/06/14 02:48:45;;;;;;;;;;;;;;;15.18;32.88;100718.81;4967066;27;98101;-73
2023/06/14 02:51:12;;;;;;;;;;;;;;;15.16;32.54;100721.00;4964486;27;98388;-67
2023/06/14 02:53:38;;;;;;;;;;;;;;;15.15;32.82;100728.34;4959611;27;97840;-68
2023/06/14 02:56:05;;;;;;;;;;;;;;;15.13;32.62;100721.59;4975299;27;98159;-73
2023/06/14 02:58:32;;;;;;;;;;;;;;;15.12;32.97;100719.97;4973047;27;99720;-73
2023/06/14 03:01:03;;;;;;;;;;;;;;;15.08;32.98;100714.31;4948977;27;97962;-68
2023/06/14 03:03:29;;;;;;;;;;;;;;;15.04;32.53;100715.19;4946247;27;99315;-72
2023/06/14 03:05:56;;;;;;;;;;;;;;;15.00;32.91;100723.13;4966186;27;99259;-68
2023/06/14 03:08:26;;;;;;;;;;;;;;;14.95;32.64;100713.13;4964572;27;98235;-68
2023/06/14 03:10:53;;;;;;;;;;;;;;;14.95;32.77;100715.03;4965955;27;98308;-68
2023/06/14 03:13:23;;;;;;;;;;;;;;;14.95;32.60;100720.47;4976042;27;98598;-68
2023/06/14 03:15:50;;;;;;;;;;;;;;;14.94;32.78;100722.38;4964294;27;97922;-68
2023/06/14 03:18:16;;;;;;;;;;;;;;;14.95;32.93;100729.41;4972466;27;98030;-68
2023/06/14 03:20:45;;;;;;;;;;;;;;;14.97;32.95;100727.22;4965024;27;99896;-68
2023/06/14 03:23:11;;;;;;;;;;;;;;;14.98;32.74;100731.56;4961837;27;98353;-68
2023/06/14 03:25:40;;;;;;;;;;;;;;;15.00;32.70;100731.25;4961676;27;98056;-72
2023/06/14 03:28:06;;;;;;;;;;;;;;;15.00;32.97;100733.16;4971743;27;97992;-73
2023/06/14 03:30:32;;;;;;;;;;;;;;;15.01;32.92;100734.78;4971221;27;98303;-71
2023/06/14 03:33:00;;;;;;;;;;;;;;;15.02;32.90;100739.13;4978474;27;98284;-68
2023/06/14 03:35:27;;;;;;;;;;;;;;;15.03;32.92;100746.16;4971057;27;97990;-73
2023/06/14 03:37:55;;;;;;;;;;;;;;;15.03;32.59;100746.16;4966489;27;108032;-73
2023/06/14 03:40:27;;;;;;;;;;;;;;;15.04;32.71;100750.50;4972681;27;98572;-73
2023/06/14 03:42:54;;;;;;;;;;;;;;;15.04;33.03;100753.19;4965470;27;99702;-68
2023/06/14 03:45:21;;;;;;;;;;;;;;;15.04;32.63;100755.91;4968201;27;98061;-68
2023/06/14 03:47:47;;;;;;;;;;;;;;;15.02;32.90;100758.94;4962290;27;100349;-73
2023/06/14 03:50:15;;;;;;;;;;;;;;;15.03;32.66;100755.09;4964914;27;98366;-69
2023/06/14 03:52:43;;;;;;;;;;;;;;;15.03;33.09;100765.97;4966592;27;98519;-68
2023/06/14 03:55:10;;;;;;;;;;;;;;;15.03;32.94;100765.97;4969416;27;98388;-68
2023/06/14 03:57:37;;;;;;;;;;;;;;;15.06;33.07;100765.41;4964999;27;98665;-69
2023/06/14 04:00:05;;;;;;;;;;;;;;;15.09;32.69;100767.53;4967615;27;99623;-73
2023/06/14 04:02:32;;;;;;;;;;;;;;;15.12;32.85;100772.38;4983091;27;99061;-68
2023/06/14 04:04:59;;;;;;;;;;;;;;;15.15;32.88;100776.41;4960886;27;98245;-73
2023/06/14 04:07:28;;;;;;;;;;;;;;;15.16;33.03;100781.53;4979898;27;98482;-73
2023/06/14 04:09:55;;;;;;;;;;;;;;;15.18;32.59;100779.38;4967872;27;98888;-73
2023/06/14 04:12:21;;;;;;;;;;;;;;;15.19;32.80;100778.25;4967329;27;98409;-73
2023/06/14 04:14:48;;;;;;;;;;;;;;;15.21;32.85;100776.06;4982158;27;98050;-73
2023/06/14 04:17:14;;;;;;;;;;;;;;;15.22;32.86;100782.31;4963666;27;100574;-73
2023/06/14 04:19:41;;;;;;;;;;;;;;;15.25;32.64;100786.34;4966635;27;98139;-68
2023/06/14 04:22:07;;;;;;;;;;;;;;;15.28;33.06;100783.84;4982897;27;98135;-69
2023/06/14 04:24:34;;;;;;;;;;;;;;;15.32;33.00;100784.88;4984134;27;98987;-68
2023/06/14 04:27:04;;;;;;;;;;;;;;;15.36;32.74;100791.34;4966221;27;98209;-69
2023/06/14 04:29:31;;;;;;;;;;;;;;;15.38;32.92;100788.34;4965365;27;98920;-73
2023/06/14 04:32:01;;;;;;;;;;;;;;;15.44;32.92;100798.03;4979770;27;98707;-69
2023/06/14 04:34:29;;;;;;;;;;;;;;;15.46;32.56;100791.22;4967091;27;98165;-73
2023/06/14 04:36:58;;;;;;;;;;;;;;;15.51;32.82;100790.34;4977757;27;98574;-73
2023/06/14 04:39:25;;;;;;;;;;;;;;;15.56;32.48;100789.47;4994161;27;98203;-69
2023/06/14 04:41:52;;;;;;;;;;;;;;;15.59;32.93;100788.88;4966462;27;99149;-73
2023/06/14 04:44:29;;;;;;;;;;;;;;;15.65;32.74;100794.00;4962181;27;100193;-73
2023/06/14 04:46:56;;;;;;;;;;;;;;;15.71;32.86;100789.28;4970162;27;99550;-68
2023/06/14 04:49:23;;;;;;;;;;;;;;;15.76;32.59;100786.50;4968220;27;97992;-73
2023/06/14 04:51:57;;;;;;;;;;;;;;;15.83;32.80;100791.56;4965315;27;98396;-73
2023/06/14 04:54:26;;;;;;;;;;;;;;;15.90;32.74;100795.53;4968336;27;98085;-68
2023/06/14 04:56:54;;;;;;;;;;;;;;;15.99;32.72;100792.94;4966661;27;99182;-73
2023/06/14 04:59:22;;;;;;;;;;;;;;;16.07;32.63;100789.56;4965009;27;98295;-68
2023/06/14 05:01:49;;;;;;;;;;;;;;;16.17;32.63;100794.03;4977299;27;98867;-68
2023/06/14 05:04:17;;;;;;;;;;;;;;;16.27;32.62;100793.03;4963337;27;98425;-73
2023/06/14 05:06:47;;;;;;;;;;;;;;;16.39;32.61;100796.94;4970879;27;98270;-69
2023/06/14 05:09:15;;;;;;;;;;;;;;;16.54;32.34;100797.75;4960842;27;98172;-68
2023/06/14 05:11:44;;;;;;;;;;;;;;;16.73;32.47;100805.84;4979780;27;99384;-68
2023/06/14 05:14:11;;;;;;;;;;;;;;;16.91;32.25;100808.53;4979519;27;98096;-68
2023/06/14 05:16:39;;;;;;;;;;;;;;;17.09;32.16;100815.00;4977912;27;98973;-73
2023/06/14 05:19:07;;;;;;;;;;;;;;;17.25;32.18;100804.63;4977907;27;97924;-73
2023/06/14 05:21:34;;;;;;;;;;;;;;;17.39;32.01;100813.56;4975891;27;99069;-69
2023/06/14 05:24:01;;;;;;;;;;;;;;;17.54;32.02;100815.16;4963322;27;98169;-68
2023/06/14 05:26:30;;;;;;;;;;;;;;;17.69;32.04;100815.97;4985886;27;97933;-68
2023/06/14 05:28:57;;;;;;;;;;;;;;;17.84;31.89;100813.72;4969694;27;97858;-73
2023/06/14 05:31:25;;;;;;;;;;;;;;;18.00;31.92;100816.06;4973698;27;98090;-73
2023/06/14 05:33:52;;;;;;;;;;;;;;;18.15;31.85;100826.63;4974595;27;98100;-68
2023/06/14 05:36:18;;;;;;;;;;;;;;;18.31;31.96;100821.59;4971254;27;98148;-69
2023/06/14 05:38:46;;;;;;;;;;;;;;;18.50;31.90;100824.16;4964403;27;98024;-68
2023/06/14 05:41:12;;;;;;;;;;;;;;;18.74;31.60;100819.16;4997996;27;98151;-68
2023/06/14 05:43:44;;;;;;;;;;;;;;;19.03;31.74;100815.16;4971897;27;100047;-74
2023/06/14 05:46:11;;;;;;;;;;;;;;;19.41;31.63;100811.88;4971521;27;98066;-74
2023/06/14 05:48:37;;;;;;;;;;;;;;;19.88;31.58;100803.91;4978034;27;98687;-69
2023/06/14 05:51:08;;;;;;;;;;;;;;;20.31;31.38;100810.16;4984040;27;98932;-69
2023/06/14 05:53:35;;;;;;;;;;;;;;;20.75;31.37;100801.88;4985181;27;98273;-73
2023/06/14 05:56:01;;;;;;;;;;;;;;;21.12;31.52;100797.53;4977240;27;98290;-69
2023/06/14 05:58:28;;;;;;;;;;;;;;;21.56;31.50;100798.91;4979259;27;99547;-69
2023/06/14 06:00:54;;;;;;;;;;;;;;;22.06;31.38;100798.03;4980225;27;97933;-70
2023/06/14 06:03:21;;;;;;;;;;;;;;;22.71;31.08;100803.03;4982737;27;97931;-70
2023/06/14 06:05:47;;;;;;;;;;;;;;;23.07;30.95;100805.06;4983250;27;97959;-74
2023/06/14 06:08:14;;;;;;;;;;;;;;;23.54;31.13;100804.56;4968811;27;99723;-74
2023/06/14 06:10:40;;;;;;;;;;;;;;;24.23;31.00;100802.66;4977500;27;97954;-70
2023/06/14 06:13:07;;;;;;;;;;;;;;;25.83;29.88;100797.53;4970404;27;98145;-74
2023/06/14 06:15:35;;;;;;;;;;;;;;;26.59;29.67;100799.78;4960371;27;100410;-73
2023/06/14 06:18:02;;;;;;;;;;;;;;;27.46;29.34;100794.47;4982454;27;98350;-74
2023/06/14 06:20:30;;;;;;;;;;;;;;;27.68;29.59;100803.88;4969244;27;100280;-70
2023/06/14 06:22:58;;;;;;;;;;;;;;;28.53;29.67;100809.63;4965819;27;100177;-72
2023/06/14 06:25:25;;;;;;;;;;;;;;;30.94;28.00;100816.84;4967200;27;100519;-68
2023/06/14 06:27:54;;;;;;;;;;;;;;;32.52;27.33;100816.34;4964856;27;98088;-72
2023/06/14 06:30:21;;;;;;;;;;;;;;;32.17;27.98;100838.44;4995332;27;98188;-68
2023/06/14 06:32:47;;;;;;;;;;;;;;;32.51;28.22;100826.72;4982494;27;97910;-72
2023/06/14 06:35:14;;;;;;;;;;;;;;;32.88;28.13;100828.81;4986985;27;98100;-72
2023/06/14 06:37:43;;;;;;;;;;;;;;;33.44;27.65;100832.28;4984594;27;99107;-68
2023/06/14 06:40:10;;;;;;;;;;;;;;;33.43;28.13;100839.09;4978983;27;98105;-72
2023/06/14 06:42:36;;;;;;;;;;;;;;;32.89;28.14;100830.38;4964777;27;98030;-68
2023/06/14 06:45:02;;;;;;;;;;;;;;;32.07;29.21;100824.53;4966068;27;98595;-72
2023/06/14 06:47:29;;;;;;;;;;;;;;;31.41;29.32;100822.38;4964950;27;98277;-69
2023/06/14 06:49:56;;;;;;;;;;;;;;;30.84;29.73;100825.97;4962365;27;99120;-73
2023/06/14 06:52:22;;;;;;;;;;;;;;;29.91;30.43;100825.72;4965434;27;98140;-72
2023/06/14 06:54:50;;;;;;;;;;;;;;;29.71;30.20;100824.41;4967733;27;99817;-69
2023/06/14 06:57:16;;;;;;;;;;;;;;;28.74;30.75;100820.94;4982064;27;98392;-73
2023/06/14 06:59:43;;;;;;;;;;;;;;;27.87;31.08;100829.47;4963677;27;98472;-72
2023/06/14 07:02:10;;;;;;;;;;;;;;;27.23;31.23;100831.28;4962218;27;97730;-72
2023/06/14 07:04:38;;;;;;;;;;;;;;;26.74;31.40;100834.81;4978687;27;98307;-69
2023/06/14 07:07:04;;;;;;;;;;;;;;;26.34;31.45;100821.41;4976332;27;99470;-69
2023/06/14 07:09:31;;;;;;;;;;;;;;;26.06;31.28;100822.47;4978032;27;98005;-73
2023/06/14 07:11:57;;;;;;;;;;;;;;;25.84;31.49;100825.94;4966874;27;98350;-73
2023/06/14 07:14:24;;;;;;;;;;;;;;;25.54;31.40;100831.16;4976322;27;99062;-69
2023/06/14 07:16:50;;;;;;;;;;;;;;;25.16;31.68;100827.94;4967280;27;97895;-73
2023/06/14 07:19:17;;;;;;;;;;;;;;;24.77;31.90;100831.66;4968934;27;98236;-72
2023/06/14 07:21:43;;;;;;;;;;;;;;;24.47;31.90;100840.31;4973366;27;98206;-69
2023/06/14 07:24:10;;;;;;;;;;;;;;;24.25;31.95;100836.16;4964055;27;98047;-69
2023/06/14 07:26:36;;;;;;;;;;;;;;;24.03;31.78;100843.00;4971347;27;97957;-68
2023/06/14 07:29:03;;;;;;;;;;;;;;;23.87;31.87;100853.13;4968355;27;98439;-68
2023/06/14 07:31:29;;;;;;;;;;;;;;;23.69;31.78;100861.63;4975933;27;98149;-68
2023/06/14 07:33:56;;;;;;;;;;;;;;;23.52;31.69;100857.16;4964738;27;98677;-69
2023/06/14 07:36:23;;;;;;;;;;;;;;;23.36;31.71;100852.72;4969121;27;98254;-71
2023/06/14 07:38:50;;;;;;;;;;;;;;;23.19;31.91;100867.50;4966540;27;98082;-69
2023/06/14 07:41:17;;;;;;;;;;;;;;;23.10;31.82;100864.03;4965099;27;98499;-69
2023/06/14 07:43:43;;;;;;;;;;;;;;;23.05;31.74;100870.56;4957082;27;99829;-68
2023/06/14 07:46:10;;;;;;;;;;;;;;;22.97;31.61;100871.47;4961915;27;99778;-72
2023/06/14 07:48:36;;;;;;;;;;;;;;;22.89;31.81;100867.66;4976697;27;98129;-70
2023/06/14 07:51:03;;;;;;;;;;;;;;;22.83;31.86;100865.44;4974540;27;98428;-69
2023/06/14 07:53:30;;;;;;;;;;;;;;;22.86;31.61;100867.53;4963917;27;98225;-72
2023/06/14 07:55:57;;;;;;;;;;;;;;;22.90;31.40;100869.25;4981623;27;98270;-69
2023/06/14 07:58:23;;;;;;;;;;;;;;;22.93;31.58;100871.34;4969858;27;98803;-68
2023/06/14 08:00:49;;;;;;;;;;;;;;;22.85;31.56;100871.44;4966185;27;97994;-69
2023/06/14 08:03:16;;;;;;;;;;;;;;;22.74;31.64;100863.59;4963007;27;97947;-68
2023/06/14 08:05:42;;;;;;;;;;;;;;;22.72;31.45;100871.41;4968633;27;98362;-68
2023/06/14 08:08:09;;;;;;;;;;;;;;;22.78;31.61;100872.78;4967620;27;98970;-72
2023/06/14 08:10:36;;;;;;;;;;;;;;;23.00;31.14;100870.81;4966460;27;101979;-68
2023/06/14 08:13:02;;;;;;;;;;;;;;;23.25;31.06;100872.41;4975779;27;98116;-68
2023/06/14 08:15:28;;;;;;;;;;;;;;;23.61;30.73;100868.03;4980259;27;98365;-69
2023/06/14 08:17:56;;;;;;;;;;;;;;;24.06;30.37;100875.34;4979153;27;98107;-68
2023/06/14 08:20:22;;;;;;;;;;;;;;;24.31;30.36;100867.78;4968849;27;98455;-68
2023/06/14 08:22:48;;;;;;;;;;;;;;;24.78;30.17;100872.63;4969580;27;99585;-71
2023/06/14 08:25:14;;;;;;;;;;;;;;;28.96;27.28;100855.19;4969000;27;98429;-68
2023/06/14 08:27:41;;;;;;;;;;;;;;;28.63;27.85;100881.03;4964060;27;98040;-72
2023/06/14 08:30:08;;;;;;;;;;;;;;;29.10;27.84;100872.00;4983160;27;98279;-69
2023/06/14 08:32:36;;;;;;;;;;;;;;;29.12;28.25;100874.38;4968313;27;98705;-72
2023/06/14 08:35:02;;;;;;;;;;;;;;;28.52;28.99;100863.47;4968709;27;100591;-69
2023/06/14 08:37:29;;;;;;;;;;;;;;;27.73;29.48;100869.97;4968623;27;98133;-69
2023/06/14 08:39:56;;;;;;;;;;;;;;;27.15;30.04;100868.31;4966700;27;98254;-72
2023/06/14 08:42:22;;;;;;;;;;;;;;;26.57;30.42;100866.50;4969517;27;98380;-69
2023/06/14 08:44:48;;;;;;;;;;;;;;;26.12;30.63;100867.94;4967447;27;98233;-71
2023/06/14 08:47:16;;;;;;;;;;;;;;;25.86;30.73;100873.28;4967842;27;98193;-71
2023/06/14 08:49:44;;;;;;;;;;;;;;;25.94;30.39;100858.50;4970478;27;97999;-71
2023/06/14 08:52:12;;;;;;;;;;;;;;;27.36;29.28;100860.38;4963623;27;98439;-69
2023/06/14 08:54:43;;;;;;;;;;;;;;;27.24;29.54;100854.25;4969382;27;99797;-72
2023/06/14 08:57:12;;;;;;;;;;;;;;;28.09;28.90;100847.13;4964787;27;98072;-72
2023/06/14 08:59:43;;;;;;;;;;;;;;;28.52;28.65;100847.66;4966108;27;98232;-69
2023/06/14 09:02:14;;;;;;;;;;;;;;;28.37;29.03;100851.44;4969587;27;98281;-70
2023/06/14 09:04:41;;;;;;;;;;;;;;;29.11;28.67;100845.03;4971041;27;98074;-72
2023/06/14 09:07:07;;;;;;;;;;;;;;;29.66;28.13;100847.81;4976511;27;99111;-72
2023/06/14 09:09:34;;;;;;;;;;;;;;;33.23;26.21;100846.47;4969747;27;98035;-73
2023/06/14 09:12:01;;;;;;;;;;;;;;;33.39;26.59;100863.47;4969473;27;98383;-73
2023/06/14 09:14:27;;;;;;;;;;;;;;;33.29;27.18;100861.59;4982492;27;98489;-74
2023/06/14 09:16:56;;;;;;;;;;;;;;;34.67;26.30;100855.53;4965715;27;98421;-73
2023/06/14 09:19:25;;;;;;;;;;;;;;;35.63;25.69;100857.91;4970031;27;98197;-74
2023/06/14 09:21:52;;;;;;;;;;;;;;;35.86;25.86;100871.06;4985983;27;98391;-74
2023/06/14 09:24:20;;;;;;;;;;;;;;;35.21;26.64;100862.28;4966028;27;98433;-77
2023/06/14 09:26:52;;;;;;;;;;;;;;;35.53;26.74;100854.13;4966486;27;97830;-74
2023/06/14 09:29:21;;;;;;;;;;;;;;;35.86;26.64;100851.44;4972099;27;98134;-77
2023/06/14 09:31:48;;;;;;;;;;;;;;;36.65;26.37;100858.97;4986589;27;98186;-75
2023/06/14 09:34:16;;;;;;;;;;;;;;;35.75;27.18;100859.28;4962867;27;98047;-76
2023/06/14 09:36:43;;;;;;;;;;;;;;;35.34;27.33;100854.84;4980333;27;98872;-76
2023/06/14 09:39:09;;;;;;;;;;;;;;;37.77;25.98;100852.84;4987592;27;98367;-77
2023/06/14 09:41:43;;;;;;;;;;;;;;;39.46;24.51;100849.09;4967458;27;98513;-76
2023/06/14 09:44:10;;;;;;;;;;;;;;;37.56;26.69;100856.25;4968165;27;98448;-77
2023/06/14 09:46:39;;;;;;;;;;;;;;;36.49;27.19;100847.72;4970643;27;98313;-76
2023/06/14 09:49:05;;;;;;;;;;;;;;;37.76;25.88;100844.84;4966060;27;98002;-76
2023/06/14 09:51:32;;;;;;;;;;;;;;;38.32;26.10;100844.41;4967718;27;99106;-76
2023/06/14 09:54:05;;;;;;;;;;;;;;;40.04;24.96;100844.13;4975683;27;98643;-76
2023/06/14 09:56:44;;;;;;;;;;;;;;;40.37;24.86;100850.91;4971347;27;98154;-78
2023/06/14 09:59:12;;;;;;;;;;;;;;;40.51;25.04;100843.09;4982863;27;98339;-74
2023/06/14 10:01:42;;;;;;;;;;;;;;;37.09;27.83;100834.22;4963883;27;98041;-75
2023/06/14 10:04:10;;;;;;;;;;;;;;;35.04;29.11;100834.16;4985490;27;98103;-78
2023/06/14 10:06:45;;;;;;;;;;;;;;;33.38;30.09;100833.16;4970139;27;98121;-75
2023/06/14 10:09:12;;;;;;;;;;;;;;;31.92;30.68;100834.97;4968914;27;98154;-75
2023/06/14 10:11:43;;;;;;;;;;;;;;;30.78;31.03;100833.94;4969952;27;100289;-77
2023/06/14 10:14:11;;;;;;;;;;;;;;;29.78;31.21;100836.38;4981691;27;100516;-74
2023/06/14 10:16:52;;;;;;;;;;;;;;;28.95;31.85;100842.50;4960419;27;100842;-74
2023/06/14 10:19:47;;;;;;;;;;;;;;;28.26;31.73;100833.88;4966914;27;98168;-74
2023/06/14 10:22:42;;;;;;;;;;;;;;;27.80;31.88;100839.66;4982878;27;98616;-74
2023/06/14 10:25:28;;;;;;;;;;;;;;;27.64;31.53;100839.81;4988396;27;117390;-73
2023/06/14 10:28:03;;;;;;;;;;;;;;;27.62;31.50;100837.41;4986560;27;98284;-77
2023/06/14 10:30:29;;;;;;;;;;;;;;;31.50;27.94;100823.53;4965060;27;98316;-72
2023/06/14 10:33:10;;;;;;;;;;;;;;;31.87;27.98;100827.81;4983620;27;97798;-72
2023/06/14 10:35:40;;;;;;;;;;;;;;;33.34;27.07;100830.41;4980618;27;98028;-77
2023/06/14 10:38:12;;;;;;;;;;;;;;;32.84;28.09;100833.63;4967115;27;98643;-72
2023/06/14 10:40:40;;;;;;;;;;;;;;;34.01;27.44;100828.09;4972198;27;98232;-78
2023/06/14 10:43:23;;;;;;;;;;;;;;;32.75;28.06;100828.53;4969050;27;98251;-72
2023/06/14 10:46:18;;;;;;;;;;;;;;;32.73;28.21;100832.91;4964915;27;98080;-79
2023/06/14 10:48:48;;;;;;;;;;;;;;;32.30;28.67;100822.03;4985913;27;97806;-78
2023/06/14 10:51:20;;;;;;;;;;;;;;;31.51;29.19;100824.31;4970115;27;98334;-72
2023/06/14 10:53:48;;;;;;;;;;;;;;;30.98;29.68;100820.41;4970284;27;99555;-71
2023/06/14 10:56:31;;;;;;;;;;;;;;;31.28;29.10;100817.22;4968883;27;98932;-78
2023/06/14 10:58:58;;;;;;;;;;;;;;;30.43;29.77;100817.97;4979515;27;99450;-71
2023/06/14 11:01:36;;;;;;;;;;;;;;;29.69;30.04;100818.47;4967486;27;98398;-71
2023/06/14 11:04:10;;;;;;;;;;;;;;;29.17;30.26;100812.19;4990330;27;98100;-78
2023/06/14 11:06:48;;;;;;;;;;;;;;;29.66;29.57;100805.38;4968020;27;98048;-73
2023/06/14 11:09:45;;;;;;;;;;;;;;;28.94;30.10;100804.84;4977507;27;98557;-78
2023/06/14 11:12:11;;;;;;;;;;;;;;;28.16;30.66;100806.84;4970508;27;98880;-77
2023/06/14 11:14:39;;;;;;;;;;;;;;;27.79;31.30;100811.16;4979502;27;102379;-77
2023/06/14 11:17:06;;;;;;;;;;;;;;;27.53;31.21;100817.50;4960629;27;98317;-78
2023/06/14 11:19:33;;;;;;;;;;;;;;;27.28;31.26;100806.09;4964467;27;99451;-78
2023/06/14 11:22:00;;;;;;;;;;;;;;;27.00;31.28;100817.47;4964422;27;98735;-75
2023/06/14 11:24:26;;;;;;;;;;;;;;;26.76;31.42;100810.34;4960861;27;98370;-70
2023/06/14 11:26:53;;;;;;;;;;;;;;;26.74;31.16;100807.16;4964995;27;98256;-70
2023/06/14 11:29:21;;;;;;;;;;;;;;;27.01;30.84;100821.03;4967581;27;98417;-78
2023/06/14 11:31:47;;;;;;;;;;;;;;;27.23;30.75;100809.16;4960708;27;98966;-78
2023/06/14 11:34:14;;;;;;;;;;;;;;;27.68;30.06;100810.19;4981710;27;97974;-71
2023/06/14 11:36:41;;;;;;;;;;;;;;;28.03;30.15;100807.09;4966959;27;98392;-77
2023/06/14 11:39:08;;;;;;;;;;;;;;;30.20;28.57;100798.84;4970014;27;98334;-78
2023/06/14 11:41:44;;;;;;;;;;;;;;;29.99;29.00;100804.31;4979745;27;99424;-70
2023/06/14 11:44:11;;;;;;;;;;;;;;;28.90;30.01;100808.78;4983973;27;100429;-70
2023/06/14 11:46:39;;;;;;;;;;;;;;;28.42;30.47;100817.84;4965921;27;98862;-70
2023/06/14 11:49:06;;;;;;;;;;;;;;;28.12;30.44;100806.81;4967754;27;99366;-70
2023/06/14 11:51:36;;;;;;;;;;;;;;;27.92;30.65;100813.69;4962944;27;98429;-70
2023/06/14 11:54:04;;;;;;;;;;;;;;;27.53;30.69;100813.94;4974728;27;99249;-77
2023/06/14 11:56:34;;;;;;;;;;;;;;;27.19;30.94;100810.28;4978264;27;98343;-77
2023/06/14 11:59:02;;;;;;;;;;;;;;;27.06;30.79;100812.41;4969294;27;98504;-70
2023/06/14 12:01:31;;;;;;;;;;;;;;;26.83;31.11;100816.00;4964002;27;98288;-77
2023/06/14 12:03:59;;;;;;;;;;;;;;;26.55;31.16;100815.50;4965948;27;98055;-76
2023/06/14 12:06:32;;;;;;;;;;;;;;;26.25;31.41;100812.53;4968498;27;98297;-78
2023/06/14 12:09:01;;;;;;;;;;;;;;;25.97;31.55;100802.53;4977882;27;100386;-70
2023/06/14 12:11:34;;;;;;;;;;;;;;;25.78;31.38;100817.16;4962205;27;98179;-76
2023/06/14 12:14:01;;;;;;;;;;;;;;;25.66;31.67;100809.78;4981654;27;98185;-70
2023/06/14 12:16:32;;;;;;;;;;;;;;;25.64;31.34;100803.81;4980631;27;98234;-70
2023/06/14 12:19:21;;;;;;;;;;;;;;;25.68;31.20;100803.88;4966873;27;101828;-77
2023/06/14 12:21:50;;;;;;;;;;;;;;;25.79;31.17;100802.19;4985117;27;98909;-70
2023/06/14 12:24:17;;;;;;;;;;;;;;;26.03;30.86;100794.78;4969537;27;98749;-70
2023/06/14 12:26:43;;;;;;;;;;;;;;;26.35;30.60;100795.38;4962421;27;99740;-77
2023/06/14 12:29:12;;;;;;;;;;;;;;;26.52;30.52;100789.41;4969420;27;98009;-70
2023/06/14 12:31:39;;;;;;;;;;;;;;;27.82;29.62;100793.00;4963352;27;98018;-69
2023/06/14 12:34:07;;;;;;;;;;;;;;;27.91;29.80;100795.50;4967890;27;98145;-70
2023/06/14 12:36:41;;;;;;;;;;;;;;;29.02;28.71;100783.53;4984384;27;99363;-76
2023/06/14 12:39:08;;;;;;;;;;;;;;;28.78;29.18;100790.47;4978142;27;99440;-77
2023/06/14 12:41:37;;;;;;;;;;;;;;;29.41;29.21;100791.34;4984712;27;98172;-76